Here is the Quick Look data you requested

The Data originates at the National Weather Service, and is made available here by the UAlbany Department of Atmospheric and Environmental Sciences

Surface Observations

KCHS 181356Z 27010G19KT 10SM FEW250 21/08 A3004 RMK AO2 SLP171 T02060083=
KCHS 181456Z 27012G16KT 10SM FEW250 23/09 A3003 RMK AO2 SLP169 T02330089 50005=
KCHS 181556Z 28009G19KT 10SM FEW250 26/07 A3002 RMK AO2 SLP163 T02560072=
KCHS 181656Z 26014G21KT 10SM CLR 27/07 A3000 RMK AO2 SLP159 T02720067=
KCHS 181756Z 25014G22KT 10SM FEW250 29/06 A2999 RMK AO2 SLP153 T02890061 10289
 20172 57016=
KCHS 181856Z 24011G20KT 10SM SCT200 29/07 A2997 RMK AO2 SLP147 T02940067=
KCHS 181956Z 24015G22KT 10SM SCT200 30/07 A2994 RMK AO2 PK WND 27026/1903
 SLP139 T03000072=
KCHS 182023Z 20016KT 10SM SCT200 28/13 A2994 RMK AO2 WSHFT 2004 T02830128=
KCHS 182023Z 20016KT 10SM SCT200 28/13 A2994=
KCHS 182023Z 20016KT 10SM SCT200 28/13 A2994 RMK AO2 WSHFT 2004 T02830128=
KCHS 182056Z 21016KT 10SM SCT200 27/13 A2994 RMK AO2 WSHFT 2004 SLP137
 T02670133 56017=
KCHS 182156Z 20016KT 10SM FEW200 26/13 A2994 RMK AO2 SLP136 T02560128=
KCHS 182256Z 20009KT 10SM SCT200 23/13 A2993 RMK AO2 SLP135 T02330128=
KCHS 182356Z 20011KT 10SM FEW200 21/12 A2993 RMK AO2 SLP133 T02060122 10306
 20206 58003=
KCHS 190056Z 20011KT 10SM CLR 19/13 A2993 RMK AO2 SLP133 T01890128=
KCHS 190156Z 20009KT 10SM CLR 18/12 A2992 RMK AO2 SLP132 T01830122=
KCHS 190256Z 20008KT 10SM CLR 17/12 A2992 RMK AO2 SLP130 T01720122 58004=
KCHS 190356Z 22010G18KT 10SM CLR 21/13 A2991 RMK AO2 SLP128 T02060128=
KCHS 190456Z 22009KT 10SM CLR 21/11 A2992 RMK AO2 SLP129 T02110111 403060156=
KCHS 190556Z 23010KT 10SM CLR 21/09 A2990 RMK AO2 SLP125 T02060089 10211 20172
 58005=
KCHS 190656Z 23010KT 10SM FEW250 20/08 A2990 RMK AO2 SLP124 T02000078=
KCHS 190756Z 23008KT 10SM FEW250 19/08 A2990 RMK AO2 SLP124 T01890083=
KCHS 190856Z 24009KT 10SM FEW250 19/10 A2990 RMK AO2 SLP124 T01890100 55000=
KCHS 190956Z 24011KT 10SM FEW250 18/12 A2990 RMK AO2 SLP125 T01830122=
KCHS 191056Z 24012KT 10SM FEW060 FEW250 18/14 A2992 RMK AO2 SLP130 T01830139=
KCHS 191156Z 25009KT 10SM FEW250 19/15 A2993 RMK AO2 SLP135 T01890150 10206
 20172 53010=
KCHS 191256Z 24012KT 10SM FEW250 21/16 A2993 RMK AO2 SLP136 T02110156=
KCHS 191356Z 25011G20KT 10SM FEW030 FEW250 23/17 A2994 RMK AO2 SLP136 T02330167=
KCHS 191456Z 27012G21KT 10SM SCT030 SCT250 24/16 A2994 RMK AO2 SLP138 T02440161
 53003=
KCHS 191556Z 25014G20KT 10SM SCT035 27/17 A2993 RMK AO2 SLP134 T02670167=
KCHS 191656Z 28013G25KT 10SM SCT045 SCT250 28/15 A2992 RMK AO2 SLP130 T02780150=
KCHS 191756Z 28016G23KT 10SM SCT050 28/14 A2991 RMK AO2 PK WND 25026/1743
 SLP127 T02780139 10283 20189 56011=
KCHS 191856Z 27017G31KT 10SM SCT055 29/13 A2991 RMK AO2 PK WND 26031/1856
 SLP127 T02940133=
KCHS 191956Z 27018G29KT 10SM SCT055 29/13 A2990 RMK AO2 PK WND 26032/1857
 SLP123 T02890128=
KCHS 192056Z 27014G24KT 10SM SCT065 29/13 A2989 RMK AO2 PK WND 27027/2003
 SLP122 T02890128 58006=
KCHS 192156Z 29018G23KT 10SM SCT060 28/12 A2991 RMK AO2 PK WND 30027/2108
 SLP126 T02830117=
KCHS 192256Z 29014G21KT 10SM FEW065 27/09 A2992 RMK AO2 SLP132 T02720089=
KCHS 192356Z 32012KT 10SM FEW065 25/04 A2995 RMK AO2 SLP143 T02500044 10294
 20250 53021=
KCHS 200056Z 33010KT 10SM CLR 22/03 A2999 RMK AO2 SLP156 T02220033=
KCHS 200156Z 31007KT 10SM CLR 21/04 A3003 RMK AO2 SLP168 T02110039=